Biggs Army Air Field (Fort Bliss)
KBIF : rendu visible

Aérodrome :











RETROUVEZ-NOUS SUR...

 
LOGIN :

S'inscrire | Disclaimer

   EN    FR    IT 

 









Légende :    VFR   VFR Marginal   IFR   IFR Intensif   IFR Très Intensif
Visi : 
Plafond : 
>= 8 km
>= 3000ft
5 à 8 km
1000 à 3000 ft
1500m à 5 km
500 à 1000 ft
800 à 1500m
200 à 500 ft
< 800m
< 200 ft
Symboles :   Orages  Brouillard  Fortes neiges  Fortes précipitations  Vent > 20 kt






- Altitude de l'aérodrome : 3946 ft


KBIF - Biggs Army Air Field (Fort Bliss)

DERNIER METAR :
  • 222258Z AUTO 24010KT 10SM BKN055 14/02 A3007 RMK AO2 SLP154 T01350021 $

METARs EXPIRÉS :
  • 222158Z AUTO 26008KT 9SM BKN055 14/03 A3007 RMK AO2 SLP154 T01360025 $

TAF TAF KBIF
Valide du 22 à 22h jusqu'au 24 à 04h UTC


222200Z 2222/2404 23012KT 9999 SCT050 QNH3006INS
BECMG 2223/2224 VRB06KT 9999 FEW200 QNH3008INS TX16/2321Z TN01/2313Z



MET'MAP, la Météo Aéronautique d'un coup d'oeil ! - Copyright ORBIFLY Décembre 2007 - Disclaimer

ORBIFLY MET'MAP TEAM :

Programmation & Développement : Alexandra Zaïnal
Conception & Développement : Baudouin d'Aumeries
Co-Programmation & Développement : Marc-Olivier Méhu
Soutien technique & logistique : Manuel Goepfert

Contact : metmap@orbifly.com




SOURCES & CREDITS :

   NOAA       Earth
Advisory